Time;durP1;ratioP1;P1;durP2;ratioP2;P2;SDS_P1;SDS_P2;PMS_P1;PMS_P2;Temp;Humidity;BMP_temperature;BMP_pressure;BME280_temperature;BME280_humidity;BME280_pressure;Samples;Min_cycle;Max_cycle;Signal;HPM_P1;HPM_P2
2021/06/26 00:00:12;;;;;;;0.67;0.67;;;;;;;15.73;62.55;100759.66;4994059;28;20201;-71
2021/06/26 00:02:38;;;;;;;1.20;1.10;;;;;;;15.83;62.66;100769.44;4994059;28;20639;-71
2021/06/26 00:05:05;;;;;;;1.23;1.13;;;;;;;15.93;62.21;100769.03;4993951;28;20177;-71
2021/06/26 00:07:31;;;;;;;0.80;0.80;;;;;;;15.87;63.68;100773.13;4993876;28;20181;-71
2021/06/26 00:09:57;;;;;;;1.40;1.30;;;;;;;15.72;64.66;100767.09;4993807;28;20296;-71
2021/06/26 00:12:23;;;;;;;1.20;1.20;;;;;;;15.88;65.26;100771.97;4993694;28;20300;-71
2021/06/26 00:14:50;;;;;;;1.20;1.10;;;;;;;16.13;66.54;100773.69;4993815;28;20173;-71
2021/06/26 00:17:15;;;;;;;1.87;1.33;;;;;;;16.28;67.08;100764.75;4993734;28;20210;-71
2021/06/26 00:19:40;;;;;;;1.40;1.30;;;;;;;16.34;67.34;100774.41;4993319;28;20640;-71
2021/06/26 00:22:06;;;;;;;1.90;1.10;;;;;;;16.38;67.09;100768.22;4993561;28;20195;-71
2021/06/26 00:24:31;;;;;;;1.13;1.10;;;;;;;16.34;65.99;100768.09;4993458;28;20244;-71
2021/06/26 00:26:57;;;;;;;0.93;0.90;;;;;;;16.33;64.86;100770.03;4993440;28;20224;-71
2021/06/26 00:29:22;;;;;;;1.27;1.17;;;;;;;15.97;64.07;100768.00;4993373;28;20563;-71
2021/06/26 00:31:47;;;;;;;1.23;1.10;;;;;;;16.22;65.63;100765.31;4993426;28;20184;-71
2021/06/26 00:34:13;;;;;;;1.33;1.10;;;;;;;16.35;65.83;100770.53;4993467;28;20187;-71
2021/06/26 00:36:38;;;;;;;1.00;1.00;;;;;;;16.51;66.08;100772.63;4993142;28;20201;-71
2021/06/26 00:39:04;;;;;;;1.63;1.53;;;;;;;16.61;66.57;100759.16;4992849;28;20208;-71
2021/06/26 00:41:30;;;;;;;1.50;1.40;;;;;;;16.68;64.97;100768.84;4993166;28;20276;-71
2021/06/26 00:43:55;;;;;;;1.40;1.30;;;;;;;16.75;65.24;100766.31;4993221;28;20191;-71
2021/06/26 00:46:21;;;;;;;1.07;1.00;;;;;;;16.65;64.80;100762.84;4993328;28;20271;-71
2021/06/26 00:48:46;;;;;;;0.93;0.93;;;;;;;16.47;64.13;100766.97;4992834;28;20580;-71
2021/06/26 00:51:11;;;;;;;1.30;1.20;;;;;;;16.62;65.76;100758.00;4991717;28;20273;-71
2021/06/26 00:53:37;;;;;;;1.00;1.00;;;;;;;16.71;65.04;100771.72;4992646;28;20184;-71
2021/06/26 00:56:03;;;;;;;0.97;0.97;;;;;;;16.75;65.73;100766.31;4992995;28;20251;-71
2021/06/26 00:58:29;;;;;;;1.50;1.40;;;;;;;16.67;65.99;100768.06;4992919;28;20548;-71
2021/06/26 01:00:54;;;;;;;1.77;1.67;;;;;;;16.72;67.13;100769.78;4992763;28;20177;-71
2021/06/26 01:03:21;;;;;;;1.33;1.23;;;;;;;16.77;66.82;100769.53;4992829;28;20173;-71
2021/06/26 01:05:47;;;;;;;2.40;1.77;;;;;;;16.47;68.56;100772.47;4992870;28;20566;-71
2021/06/26 01:08:13;;;;;;;2.00;1.90;;;;;;;15.91;70.14;100769.38;4992542;28;20588;-71
2021/06/26 01:10:39;;;;;;;1.67;1.47;;;;;;;15.53;71.40;100765.97;4992784;28;20261;-71
2021/06/26 01:13:05;;;;;;;1.73;1.63;;;;;;;15.42;71.61;100774.63;4992714;28;20205;-71
2021/06/26 01:15:32;;;;;;;1.90;1.80;;;;;;;15.32;71.51;100777.75;4992625;28;20173;-71
2021/06/26 01:17:57;;;;;;;1.90;1.80;;;;;;;15.53;71.45;100769.53;4992496;28;20216;-71
2021/06/26 01:20:24;;;;;;;1.33;1.23;;;;;;;15.45;71.35;100775.88;4990392;28;20530;-71
2021/06/26 01:22:58;;;;;;;1.60;1.50;;;;;;;15.46;70.72;100783.00;4992566;28;20177;-71
2021/06/26 01:25:25;;;;;;;1.53;1.43;;;;;;;15.42;71.26;100780.13;4992840;28;20181;-71
2021/06/26 01:27:51;;;;;;;2.20;2.00;;;;;;;15.23;73.17;100790.78;4992465;28;20644;-71
2021/06/26 01:30:22;;;;;;;1.60;1.50;;;;;;;15.31;73.08;100789.91;4991730;28;20177;-71
2021/06/26 01:32:47;;;;;;;1.33;1.23;;;;;;;15.60;73.05;100788.28;4992168;28;20649;-71
2021/06/26 01:35:12;;;;;;;2.30;2.10;;;;;;;15.86;72.08;100777.03;4992279;28;20177;-71
2021/06/26 01:37:39;;;;;;;1.53;1.43;;;;;;;16.01;70.91;100782.72;4992125;28;20572;-71
2021/06/26 01:40:05;;;;;;;1.60;1.50;;;;;;;16.17;70.63;100782.88;4991896;28;20181;-71
2021/06/26 01:42:31;;;;;;;1.67;1.57;;;;;;;16.25;70.27;100775.66;4992041;28;20562;-71
2021/06/26 01:44:56;;;;;;;1.10;1.10;;;;;;;16.28;69.86;100775.78;4992139;28;20174;-71
2021/06/26 01:47:21;;;;;;;1.40;1.30;;;;;;;16.30;70.29;100778.19;4991970;28;20191;-71
2021/06/26 01:49:47;;;;;;;1.33;1.23;;;;;;;16.27;70.57;100781.63;4991796;28;20181;-71
2021/06/26 01:52:12;;;;;;;1.97;1.50;;;;;;;16.27;70.40;100776.13;4991948;28;20181;-71
2021/06/26 01:54:38;;;;;;;1.37;1.33;;;;;;;16.26;70.14;100769.00;4992205;28;20273;-71
2021/06/26 01:57:09;;;;;;;1.33;1.23;;;;;;;16.17;70.17;100776.56;4991695;28;20201;-71
2021/06/26 01:59:36;;;;;;;1.30;1.20;;;;;;;16.25;71.10;100781.19;4991563;28;20228;-71
2021/06/26 02:02:01;;;;;;;1.30;1.20;;;;;;;16.31;71.14;100777.03;4991613;28;20205;-71
2021/06/26 02:04:27;;;;;;;1.63;1.27;;;;;;;16.14;71.87;100772.53;4991157;28;20487;-71
2021/06/26 02:06:52;;;;;;;1.80;1.60;;;;;;;16.00;73.39;100775.59;4991766;28;20246;-71
2021/06/26 02:09:17;;;;;;;1.33;1.23;;;;;;;16.15;73.76;100770.59;4990138;28;20184;-71
2021/06/26 02:11:43;;;;;;;1.23;1.20;;;;;;;16.27;71.94;100770.63;4991723;28;20579;-71
2021/06/26 02:14:08;;;;;;;1.40;1.30;;;;;;;16.31;70.25;100764.06;4991618;28;20181;-71
2021/06/26 02:16:33;;;;;;;1.57;1.47;;;;;;;16.30;70.29;100765.22;4991335;28;20205;-71
2021/06/26 02:18:59;;;;;;;1.30;1.20;;;;;;;16.20;70.57;100764.84;4991186;28;20185;-71
2021/06/26 02:21:24;;;;;;;1.43;1.20;;;;;;;15.74;70.95;100764.81;4991219;28;20860;-71
2021/06/26 02:23:50;;;;;;;1.60;1.43;;;;;;;15.77;71.13;100761.41;4991522;28;20259;-71
2021/06/26 02:26:15;;;;;;;1.20;1.20;;;;;;;15.98;71.67;100766.88;4991752;28;20188;-71
2021/06/26 02:28:41;;;;;;;1.50;1.40;;;;;;;16.07;71.56;100775.06;4991251;28;20257;-72
2021/06/26 02:31:06;;;;;;;1.60;1.10;;;;;;;15.70;72.32;100774.91;4990035;28;20629;-71
2021/06/26 02:33:31;;;;;;;1.30;1.20;;;;;;;15.67;73.14;100772.03;4991524;28;20173;-71
2021/06/26 02:35:57;;;;;;;2.40;1.10;;;;;;;15.73;73.13;100781.69;4991601;28;20196;-71
2021/06/26 02:38:22;;;;;;;1.17;1.17;;;;;;;15.88;73.04;100772.78;4991630;28;20180;-71
2021/06/26 02:40:47;;;;;;;1.77;1.67;;;;;;;16.00;73.12;100774.78;4991983;28;20256;-71
2021/06/26 02:43:13;;;;;;;0.90;0.90;;;;;;;16.09;73.04;100778.28;4990983;28;20641;-71
2021/06/26 02:45:38;;;;;;;1.37;1.27;;;;;;;16.17;71.66;100766.34;4991230;28;20188;-71
2021/06/26 02:48:04;;;;;;;1.13;1.13;;;;;;;16.14;71.33;100767.00;4991288;28;20268;-71
2021/06/26 02:50:30;;;;;;;1.77;1.67;;;;;;;16.17;71.60;100771.03;4991192;28;20204;-71
2021/06/26 02:52:55;;;;;;;1.30;1.20;;;;;;;16.15;71.90;100774.13;4991032;28;20177;-71
2021/06/26 02:55:20;;;;;;;1.13;1.13;;;;;;;16.15;72.32;100770.59;4991205;28;20177;-71
2021/06/26 02:57:46;;;;;;;4.20;1.40;;;;;;;16.02;72.59;100778.81;4990776;28;20223;-71
2021/06/26 03:00:12;;;;;;;1.17;1.13;;;;;;;15.79;72.96;100780.34;4988701;28;20232;-71
2021/06/26 03:02:37;;;;;;;1.63;1.53;;;;;;;15.93;73.98;100774.53;4990422;28;20182;-71
2021/06/26 03:05:03;;;;;;;1.47;1.37;;;;;;;16.08;73.74;100775.84;4990753;28;20684;-70
2021/06/26 03:07:29;;;;;;;1.70;1.60;;;;;;;16.18;73.28;100775.41;4990995;28;20185;-70
2021/06/26 03:09:54;;;;;;;1.67;1.57;;;;;;;16.23;73.68;100780.72;4990734;28;20181;-71
2021/06/26 03:12:19;;;;;;;1.73;1.63;;;;;;;16.16;72.98;100774.94;4989005;28;20614;-71
2021/06/26 03:14:44;;;;;;;1.60;1.50;;;;;;;15.68;73.16;100781.91;4991237;28;20185;-71
2021/06/26 03:17:10;;;;;;;1.63;1.53;;;;;;;15.70;73.41;100777.66;4994708;28;20208;-71
2021/06/26 03:19:36;;;;;;;2.30;1.33;;;;;;;15.47;74.37;100787.38;4994492;28;20177;-71
2021/06/26 03:22:02;;;;;;;1.60;1.50;;;;;;;15.20;75.50;100785.16;4995049;28;20212;-71
2021/06/26 03:24:28;;;;;;;1.80;1.70;;;;;;;15.37;75.80;100785.84;4994753;28;20232;-71
2021/06/26 03:26:54;;;;;;;1.63;1.50;;;;;;;15.61;75.26;100792.63;4994671;28;20566;-71
2021/06/26 03:29:20;;;;;;;1.30;1.20;;;;;;;15.75;74.75;100785.72;4994481;28;20552;-71
2021/06/26 03:31:45;;;;;;;1.60;1.50;;;;;;;15.32;74.98;100788.78;4994588;28;20173;-71
2021/06/26 03:34:10;;;;;;;1.70;1.60;;;;;;;15.14;75.72;100788.09;4994561;28;20172;-71
2021/06/26 03:36:36;;;;;;;1.47;1.37;;;;;;;15.18;76.05;100793.72;4994452;28;20200;-70
2021/06/26 03:39:01;;;;;;;1.80;1.70;;;;;;;15.47;75.82;100788.16;4994117;28;20180;-71
2021/06/26 03:41:27;;;;;;;1.60;1.50;;;;;;;15.75;75.32;100793.97;4994177;28;20189;-71
2021/06/26 03:43:55;;;;;;;2.40;2.20;;;;;;;15.94;74.15;100798.19;4994469;28;20173;-70
2021/06/26 03:46:20;;;;;;;1.90;1.80;;;;;;;16.07;74.45;100791.59;4994322;28;20235;-70
2021/06/26 03:48:46;;;;;;;1.63;1.53;;;;;;;16.16;74.04;100791.47;4994050;28;20178;-71
2021/06/26 03:51:11;;;;;;;1.63;1.53;;;;;;;16.19;73.82;100794.34;4994131;28;20170;-71
2021/06/26 03:53:37;;;;;;;1.80;1.70;;;;;;;16.17;73.35;100793.91;4994410;28;20256;-70
2021/06/26 03:56:02;;;;;;;2.20;1.83;;;;;;;16.17;73.43;100795.84;4994444;28;20530;-72
2021/06/26 03:58:28;;;;;;;3.97;2.23;;;;;;;16.15;73.28;100789.88;4994134;28;20573;-71
2021/06/26 04:00:55;;;;;;;2.57;2.37;;;;;;;16.14;72.80;100791.81;4993813;28;20173;-72
2021/06/26 04:03:21;;;;;;;1.97;1.87;;;;;;;16.17;73.33;100791.13;4990023;28;20209;-71
2021/06/26 04:05:46;;;;;;;2.23;2.03;;;;;;;16.24;73.84;100796.13;4994238;28;20181;-70
2021/06/26 04:08:12;;;;;;;2.23;2.03;;;;;;;16.30;73.85;100794.75;4994464;28;20260;-71
2021/06/26 04:10:39;;;;;;;2.27;2.10;;;;;;;16.36;73.76;100801.66;4992916;28;20191;-71
2021/06/26 04:13:04;;;;;;;2.00;1.90;;;;;;;16.42;74.35;100799.47;4994373;28;20174;-70
2021/06/26 04:15:30;;;;;;;2.20;2.10;;;;;;;16.46;74.46;100809.47;4994241;28;20265;-71
2021/06/26 04:17:56;;;;;;;2.10;2.00;;;;;;;16.56;74.10;100819.28;4994114;28;20228;-70
2021/06/26 04:20:21;;;;;;;1.97;1.87;;;;;;;16.61;73.68;100811.56;4993944;28;20640;-73
2021/06/26 04:22:47;;;;;;;2.20;1.80;;;;;;;16.66;73.60;100814.13;4994063;28;20644;-73
2021/06/26 04:25:13;;;;;;;4.30;2.20;;;;;;;16.78;73.45;100815.28;4994199;28;20658;-73
2021/06/26 04:27:39;;;;;;;1.90;1.80;;;;;;;16.76;73.40;100814.84;4993473;28;20395;-72
2021/06/26 04:30:05;;;;;;;2.03;1.93;;;;;;;16.70;74.66;100814.25;4993744;28;20177;-73
2021/06/26 04:32:30;;;;;;;2.00;1.90;;;;;;;16.13;77.75;100822.50;4993780;28;20170;-72
2021/06/26 04:34:56;;;;;;;1.93;1.83;;;;;;;15.68;80.81;100826.78;4993967;28;20180;-72
2021/06/26 04:37:22;;;;;;;2.23;2.03;;;;;;;15.68;81.77;100825.97;4993761;28;20271;-73
2021/06/26 04:39:47;;;;;;;1.90;1.80;;;;;;;15.74;80.33;100825.41;4993660;28;20173;-72
2021/06/26 04:42:12;;;;;;;2.20;2.10;;;;;;;15.90;79.84;100820.09;4993723;28;20264;-72
2021/06/26 04:44:38;;;;;;;2.10;1.90;;;;;;;15.90;79.93;100825.59;4994111;28;20183;-72
2021/06/26 04:47:04;;;;;;;1.80;1.70;;;;;;;16.09;79.94;100835.34;4993730;28;20173;-73
2021/06/26 04:49:30;;;;;;;1.80;1.70;;;;;;;16.11;78.72;100833.06;4993428;28;20506;-73
2021/06/26 04:51:55;;;;;;;1.90;1.80;;;;;;;16.37;79.47;100830.84;4993705;28;20165;-73
2021/06/26 04:54:21;;;;;;;1.97;1.87;;;;;;;16.57;80.18;100837.44;4993585;28;20639;-73
2021/06/26 04:56:46;;;;;;;7.67;1.73;;;;;;;16.66;79.86;100838.16;4993521;28;20197;-73
2021/06/26 04:59:11;;;;;;;1.73;1.63;;;;;;;16.49;78.38;100841.06;4993430;28;20703;-72
2021/06/26 05:01:37;;;;;;;2.70;1.60;;;;;;;16.51;78.97;100841.56;4993471;28;20184;-72
2021/06/26 05:04:02;;;;;;;2.53;1.60;;;;;;;16.58;79.82;100834.34;4993467;28;20257;-72
2021/06/26 05:06:27;;;;;;;1.77;1.67;;;;;;;16.61;80.00;100835.59;4993672;28;20263;-72
2021/06/26 05:08:53;;;;;;;1.97;1.77;;;;;;;16.60;80.15;100832.03;4993222;28;20240;-73
2021/06/26 05:11:18;;;;;;;1.80;1.70;;;;;;;16.62;79.13;100843.53;4991844;28;20173;-72
2021/06/26 05:13:43;;;;;;;2.60;1.60;;;;;;;16.64;79.23;100832.16;4991630;28;20173;-72
2021/06/26 05:16:09;;;;;;;1.67;1.57;;;;;;;16.69;79.92;100828.41;4993089;28;20204;-72
2021/06/26 05:18:35;;;;;;;1.90;1.80;;;;;;;16.70;80.35;100830.81;4993217;28;20215;-72
2021/06/26 05:21:01;;;;;;;1.90;1.80;;;;;;;16.69;81.69;100829.22;4993132;28;20200;-72
2021/06/26 05:23:26;;;;;;;2.07;1.97;;;;;;;16.74;83.22;100823.47;4993179;28;20258;-72
2021/06/26 05:25:52;;;;;;;1.80;1.57;;;;;;;16.41;85.45;100826.25;4993115;28;20701;-72
2021/06/26 05:28:17;;;;;;;3.30;1.90;;;;;;;16.25;86.07;100822.53;4993062;28;20260;-73
2021/06/26 05:30:44;;;;;;;2.17;1.97;;;;;;;16.48;86.14;100828.44;4993135;28;20180;-73
2021/06/26 05:33:09;;;;;;;1.97;1.87;;;;;;;16.68;85.54;100827.59;4993048;28;20161;-73
2021/06/26 05:35:35;;;;;;;2.00;1.90;;;;;;;16.90;84.74;100827.13;4991908;28;20577;-73
2021/06/26 05:38:01;;;;;;;3.50;1.60;;;;;;;16.97;84.19;100831.31;4992247;28;20208;-72
2021/06/26 05:40:26;;;;;;;2.27;2.07;;;;;;;16.81;83.36;100831.19;4991844;28;20267;-73
2021/06/26 05:42:52;;;;;;;2.67;2.07;;;;;;;16.79;83.49;100834.28;4992271;28;20194;-72
2021/06/26 05:45:17;;;;;;;1.80;1.70;;;;;;;16.87;83.56;100836.13;4992188;28;20260;-72
2021/06/26 05:47:42;;;;;;;2.47;2.27;;;;;;;16.91;83.40;100839.78;4992157;28;20590;-72
2021/06/26 05:50:09;;;;;;;2.27;2.07;;;;;;;17.03;83.20;100839.00;4991843;28;20264;-72
2021/06/26 05:52:45;;;;;;;2.20;1.87;;;;;;;16.94;83.22;100832.81;4990724;28;20632;-73
2021/06/26 05:55:11;;;;;;;2.20;2.00;;;;;;;17.18;83.65;100834.72;4992027;28;20189;-72
2021/06/26 05:57:36;;;;;;;2.27;2.07;;;;;;;17.46;81.81;100838.38;4991738;28;20613;-75
2021/06/26 06:00:04;;;;;;;2.50;2.13;;;;;;;17.62;79.73;100832.94;4991983;28;20181;-75
2021/06/26 06:02:29;;;;;;;2.03;1.93;;;;;;;17.55;79.06;100836.31;4989441;28;20594;-72
2021/06/26 06:04:55;;;;;;;2.77;2.57;;;;;;;17.60;78.22;100839.97;4991988;28;20216;-72
2021/06/26 06:07:20;;;;;;;2.90;2.53;;;;;;;17.53;78.36;100832.28;4991689;28;20629;-71
2021/06/26 06:09:45;;;;;;;2.33;2.13;;;;;;;17.49;79.46;100826.63;4991478;28;20185;-73
2021/06/26 06:12:11;;;;;;;2.70;2.50;;;;;;;17.32;82.18;100840.69;4991654;28;20197;-70
2021/06/26 06:14:36;;;;;;;2.33;2.17;;;;;;;17.54;81.48;100831.94;4991426;28;20246;-70
2021/06/26 06:17:02;;;;;;;2.23;2.03;;;;;;;17.82;80.17;100839.50;4991178;28;20561;-71
2021/06/26 06:19:27;;;;;;;2.40;2.20;;;;;;;18.03;79.29;100851.16;4991245;28;20177;-71
2021/06/26 06:21:52;;;;;;;2.40;2.27;;;;;;;17.87;79.10;100839.22;4991573;28;20646;-73
2021/06/26 06:24:18;;;;;;;2.90;2.70;;;;;;;17.77;79.89;100843.28;4991631;28;20196;-70
